Terminal Aerodrome Forecast
Issued by NWS

Home | Current Version | Previous Version | Text Only | Print | Product List | Glossary On
Versions: 1 2 3 4 5 6 7 8 9 10 11 12 13 14 15 16 17 18 19 20 21 22 23 24 25 26 27 28 29 30 31 32 33 34
000
FTUS41 KBOX 211736
TAFHYA
TAF
KHYA 211736Z 2118/2218 13013KT P6SM SCT015 BKN025
     FM212300 14007KT P6SM BKN015
     FM220100 08006KT P6SM BKN015
     FM220300 06006KT P6SM BKN008
     FM221200 02008KT 3SM BR OVC003=

USA.gov is the U.S. government's official web portal to all federal, state and local government web resources and services.